sensor_id;sensor_type;location;lat;lon;timestamp;pressure;altitude;pressure_sealevel;temperature;humidity
68077;BME280;54866;53.458;14.540;2023-07-20T00:00:21;100136.38;;;15.33;81.15
68077;BME280;54866;53.458;14.540;2023-07-20T00:02:51;100137.40;;;15.31;81.11
68077;BME280;54866;53.458;14.540;2023-07-20T00:05:21;100141.42;;;15.30;81.17
68077;BME280;54866;53.458;14.540;2023-07-20T00:07:52;100137.17;;;15.29;81.38
68077;BME280;54866;53.458;14.540;2023-07-20T00:10:22;100131.75;;;15.26;81.40
68077;BME280;54866;53.458;14.540;2023-07-20T00:12:51;100127.47;;;15.26;81.30
68077;BME280;54866;53.458;14.540;2023-07-20T00:15:20;100127.73;;;15.25;81.17
68077;BME280;54866;53.458;14.540;2023-07-20T00:17:50;100128.78;;;15.25;81.28
68077;BME280;54866;53.458;14.540;2023-07-20T00:20:19;100126.36;;;15.24;81.46
68077;BME280;54866;53.458;14.540;2023-07-20T00:22:49;100130.32;;;15.23;81.74
68077;BME280;54866;53.458;14.540;2023-07-20T00:25:19;100133.17;;;15.21;82.39
68077;BME280;54866;53.458;14.540;2023-07-20T00:27:48;100130.48;;;15.18;82.75
68077;BME280;54866;53.458;14.540;2023-07-20T00:30:18;100132.14;;;15.13;82.93
68077;BME280;54866;53.458;14.540;2023-07-20T00:32:47;100134.10;;;15.11;82.97
68077;BME280;54866;53.458;14.540;2023-07-20T00:35:17;100132.23;;;15.08;83.02
68077;BME280;54866;53.458;14.540;2023-07-20T00:37:46;100133.98;;;15.11;83.31
68077;BME280;54866;53.458;14.540;2023-07-20T00:40:15;100134.11;;;15.09;83.41
68077;BME280;54866;53.458;14.540;2023-07-20T00:42:46;100134.23;;;15.09;83.37
68077;BME280;54866;53.458;14.540;2023-07-20T00:45:15;100135.02;;;15.09;83.61
68077;BME280;54866;53.458;14.540;2023-07-20T00:47:45;100137.30;;;15.06;83.71
68077;BME280;54866;53.458;14.540;2023-07-20T00:50:14;100145.18;;;15.05;83.68
68077;BME280;54866;53.458;14.540;2023-07-20T00:52:43;100147.23;;;15.04;83.78
68077;BME280;54866;53.458;14.540;2023-07-20T00:55:13;100148.44;;;15.01;83.72
68077;BME280;54866;53.458;14.540;2023-07-20T00:57:42;100147.14;;;15.00;83.61
68077;BME280;54866;53.458;14.540;2023-07-20T01:00:13;100146.34;;;14.98;83.91
68077;BME280;54866;53.458;14.540;2023-07-20T01:02:43;100148.70;;;14.96;83.97
68077;BME280;54866;53.458;14.540;2023-07-20T01:05:13;100149.80;;;14.92;84.09
68077;BME280;54866;53.458;14.540;2023-07-20T01:07:51;100145.02;;;14.88;84.32
68077;BME280;54866;53.458;14.540;2023-07-20T01:10:28;100143.35;;;14.84;84.71
68077;BME280;54866;53.458;14.540;2023-07-20T01:12:59;100147.23;;;14.81;85.17
68077;BME280;54866;53.458;14.540;2023-07-20T01:15:29;100148.26;;;14.78;85.21
68077;BME280;54866;53.458;14.540;2023-07-20T01:17:58;100149.76;;;14.77;85.33
68077;BME280;54866;53.458;14.540;2023-07-20T01:20:30;100147.45;;;14.75;85.65
68077;BME280;54866;53.458;14.540;2023-07-20T01:23:26;100144.94;;;14.73;85.76
68077;BME280;54866;53.458;14.540;2023-07-20T01:26:16;100142.14;;;14.72;86.09
68077;BME280;54866;53.458;14.540;2023-07-20T01:29:22;100145.21;;;14.71;86.23
68077;BME280;54866;53.458;14.540;2023-07-20T01:31:58;100137.52;;;14.68;86.22
68077;BME280;54866;53.458;14.540;2023-07-20T01:34:31;100139.16;;;14.69;86.33
68077;BME280;54866;53.458;14.540;2023-07-20T01:37:02;100139.30;;;14.68;86.40
68077;BME280;54866;53.458;14.540;2023-07-20T01:39:32;100140.79;;;14.68;86.56
68077;BME280;54866;53.458;14.540;2023-07-20T01:42:02;100135.06;;;14.65;86.60
68077;BME280;54866;53.458;14.540;2023-07-20T01:44:32;100136.42;;;14.64;86.69
68077;BME280;54866;53.458;14.540;2023-07-20T01:47:01;100136.84;;;14.60;86.61
68077;BME280;54866;53.458;14.540;2023-07-20T01:49:30;100137.10;;;14.57;86.77
68077;BME280;54866;53.458;14.540;2023-07-20T01:52:00;100140.25;;;14.54;86.88
68077;BME280;54866;53.458;14.540;2023-07-20T01:54:30;100132.89;;;14.50;87.03
68077;BME280;54866;53.458;14.540;2023-07-20T01:56:59;100131.66;;;14.46;87.12
68077;BME280;54866;53.458;14.540;2023-07-20T01:59:28;100129.64;;;14.42;87.50
68077;BME280;54866;53.458;14.540;2023-07-20T02:01:58;100128.14;;;14.37;87.65
68077;BME280;54866;53.458;14.540;2023-07-20T02:04:27;100123.80;;;14.35;87.93
68077;BME280;54866;53.458;14.540;2023-07-20T02:06:56;100125.89;;;14.32;88.22
68077;BME280;54866;53.458;14.540;2023-07-20T02:09:26;100125.31;;;14.29;88.45
68077;BME280;54866;53.458;14.540;2023-07-20T02:11:55;100129.51;;;14.24;88.81
68077;BME280;54866;53.458;14.540;2023-07-20T02:14:24;100129.30;;;14.19;88.97
68077;BME280;54866;53.458;14.540;2023-07-20T02:16:54;100130.92;;;14.13;89.25
68077;BME280;54866;53.458;14.540;2023-07-20T02:19:26;100131.11;;;14.08;89.29
68077;BME280;54866;53.458;14.540;2023-07-20T02:21:55;100133.75;;;14.03;89.80
68077;BME280;54866;53.458;14.540;2023-07-20T02:24:25;100133.71;;;13.99;89.92
68077;BME280;54866;53.458;14.540;2023-07-20T02:26:54;100136.31;;;13.94;90.36
68077;BME280;54866;53.458;14.540;2023-07-20T02:29:23;100133.00;;;13.90;90.99
68077;BME280;54866;53.458;14.540;2023-07-20T02:31:53;100130.02;;;13.86;91.52
68077;BME280;54866;53.458;14.540;2023-07-20T02:34:22;100123.89;;;13.82;91.74
68077;BME280;54866;53.458;14.540;2023-07-20T02:36:51;100124.35;;;13.81;91.90
68077;BME280;54866;53.458;14.540;2023-07-20T02:39:20;100133.05;;;13.81;92.17
68077;BME280;54866;53.458;14.540;2023-07-20T02:41:50;100135.10;;;13.80;92.43
68077;BME280;54866;53.458;14.540;2023-07-20T02:44:20;100133.60;;;13.79;92.74
68077;BME280;54866;53.458;14.540;2023-07-20T02:46:49;100135.15;;;13.77;92.79
68077;BME280;54866;53.458;14.540;2023-07-20T02:49:19;100132.23;;;13.78;93.19
68077;BME280;54866;53.458;14.540;2023-07-20T02:51:48;100135.76;;;13.78;93.10
68077;BME280;54866;53.458;14.540;2023-07-20T02:54:17;100144.16;;;13.79;93.38
68077;BME280;54866;53.458;14.540;2023-07-20T02:56:47;100138.95;;;13.80;93.51
68077;BME280;54866;53.458;14.540;2023-07-20T02:59:16;100137.04;;;13.81;93.46
68077;BME280;54866;53.458;14.540;2023-07-20T03:01:46;100134.84;;;13.80;93.27
68077;BME280;54866;53.458;14.540;2023-07-20T03:04:16;100136.20;;;13.81;93.15
68077;BME280;54866;53.458;14.540;2023-07-20T03:06:45;100135.64;;;13.81;93.11
68077;BME280;54866;53.458;14.540;2023-07-20T03:09:14;100136.13;;;13.83;92.74
68077;BME280;54866;53.458;14.540;2023-07-20T03:11:44;100131.77;;;13.83;92.87
68077;BME280;54866;53.458;14.540;2023-07-20T03:14:13;100132.63;;;13.83;92.65
68077;BME280;54866;53.458;14.540;2023-07-20T03:16:43;100130.62;;;13.80;92.43
68077;BME280;54866;53.458;14.540;2023-07-20T03:19:12;100136.71;;;13.81;92.28
68077;BME280;54866;53.458;14.540;2023-07-20T03:21:41;100137.73;;;13.80;92.52
68077;BME280;54866;53.458;14.540;2023-07-20T03:24:11;100129.73;;;13.80;92.35
68077;BME280;54866;53.458;14.540;2023-07-20T03:26:40;100131.02;;;13.80;92.35
68077;BME280;54866;53.458;14.540;2023-07-20T03:29:09;100133.05;;;13.80;92.33
68077;BME280;54866;53.458;14.540;2023-07-20T03:31:39;100131.16;;;13.82;92.29
68077;BME280;54866;53.458;14.540;2023-07-20T03:34:08;100136.48;;;13.83;92.12
68077;BME280;54866;53.458;14.540;2023-07-20T03:36:38;100137.39;;;13.85;91.98
68077;BME280;54866;53.458;14.540;2023-07-20T03:39:07;100136.14;;;13.86;91.99
68077;BME280;54866;53.458;14.540;2023-07-20T03:41:36;100138.48;;;13.88;91.86
68077;BME280;54866;53.458;14.540;2023-07-20T03:44:06;100135.16;;;13.90;91.92
68077;BME280;54866;53.458;14.540;2023-07-20T03:46:35;100134.01;;;13.91;91.63
68077;BME280;54866;53.458;14.540;2023-07-20T03:49:05;100134.36;;;13.92;91.45
68077;BME280;54866;53.458;14.540;2023-07-20T03:51:36;100141.67;;;13.97;91.25
68077;BME280;54866;53.458;14.540;2023-07-20T03:54:06;100144.29;;;14.01;91.14
68077;BME280;54866;53.458;14.540;2023-07-20T03:56:36;100140.28;;;14.03;90.76
68077;BME280;54866;53.458;14.540;2023-07-20T03:59:05;100140.21;;;14.06;90.51
68077;BME280;54866;53.458;14.540;2023-07-20T04:01:34;100142.91;;;14.09;90.68
68077;BME280;54866;53.458;14.540;2023-07-20T04:13:28;100136.47;;;14.35;89.77
68077;BME280;54866;53.458;14.540;2023-07-20T04:16:01;100134.45;;;14.43;89.36
68077;BME280;54866;53.458;14.540;2023-07-20T04:18:31;100131.90;;;14.51;89.11
68077;BME280;54866;53.458;14.540;2023-07-20T04:21:00;100135.20;;;14.60;88.75
68077;BME280;54866;53.458;14.540;2023-07-20T04:23:29;100133.92;;;14.64;88.26
68077;BME280;54866;53.458;14.540;2023-07-20T04:25:59;100136.38;;;14.70;88.06
68077;BME280;54866;53.458;14.540;2023-07-20T04:28:28;100134.30;;;14.79;87.65
68077;BME280;54866;53.458;14.540;2023-07-20T04:31:10;100138.58;;;14.87;87.25
68077;BME280;54866;53.458;14.540;2023-07-20T04:33:40;100136.32;;;14.95;86.66
68077;BME280;54866;53.458;14.540;2023-07-20T04:36:09;100137.86;;;15.01;86.40
68077;BME280;54866;53.458;14.540;2023-07-20T04:38:39;100135.86;;;15.04;86.04
68077;BME280;54866;53.458;14.540;2023-07-20T04:41:08;100136.44;;;15.09;85.82
68077;BME280;54866;53.458;14.540;2023-07-20T04:43:38;100137.94;;;15.15;85.59
68077;BME280;54866;53.458;14.540;2023-07-20T04:46:09;100143.52;;;15.19;85.21
68077;BME280;54866;53.458;14.540;2023-07-20T04:48:39;100144.20;;;15.24;85.07
68077;BME280;54866;53.458;14.540;2023-07-20T04:51:09;100142.06;;;15.29;84.68
68077;BME280;54866;53.458;14.540;2023-07-20T04:53:39;100144.52;;;15.34;84.51
68077;BME280;54866;53.458;14.540;2023-07-20T04:56:09;100145.49;;;15.35;84.25
68077;BME280;54866;53.458;14.540;2023-07-20T04:58:39;100147.79;;;15.41;84.10
68077;BME280;54866;53.458;14.540;2023-07-20T05:01:09;100146.70;;;15.42;84.04
68077;BME280;54866;53.458;14.540;2023-07-20T05:03:38;100145.25;;;15.48;83.96
68077;BME280;54866;53.458;14.540;2023-07-20T05:06:07;100147.92;;;15.56;83.84
68077;BME280;54866;53.458;14.540;2023-07-20T05:08:36;100146.39;;;15.62;83.69
68077;BME280;54866;53.458;14.540;2023-07-20T05:11:07;100146.98;;;15.69;83.60
68077;BME280;54866;53.458;14.540;2023-07-20T05:13:36;100147.09;;;15.81;83.06
68077;BME280;54866;53.458;14.540;2023-07-20T05:16:06;100144.98;;;15.91;82.90
68077;BME280;54866;53.458;14.540;2023-07-20T05:18:36;100149.71;;;16.03;82.30
68077;BME280;54866;53.458;14.540;2023-07-20T05:21:06;100149.43;;;16.15;82.02
68077;BME280;54866;53.458;14.540;2023-07-20T05:23:36;100152.16;;;16.32;81.53
68077;BME280;54866;53.458;14.540;2023-07-20T05:26:05;100143.27;;;16.45;80.38
68077;BME280;54866;53.458;14.540;2023-07-20T05:28:35;100150.02;;;16.59;80.20
68077;BME280;54866;53.458;14.540;2023-07-20T05:31:05;100150.29;;;16.72;79.49
68077;BME280;54866;53.458;14.540;2023-07-20T05:33:35;100148.58;;;16.79;79.35
68077;BME280;54866;53.458;14.540;2023-07-20T05:36:06;100148.77;;;16.97;78.78
68077;BME280;54866;53.458;14.540;2023-07-20T05:38:36;100145.54;;;17.10;77.64
68077;BME280;54866;53.458;14.540;2023-07-20T05:41:05;100148.23;;;17.18;77.44
68077;BME280;54866;53.458;14.540;2023-07-20T05:43:38;100146.16;;;17.34;76.98
68077;BME280;54866;53.458;14.540;2023-07-20T05:46:07;100146.70;;;17.49;76.18
68077;BME280;54866;53.458;14.540;2023-07-20T05:48:37;100145.13;;;17.66;75.49
68077;BME280;54866;53.458;14.540;2023-07-20T05:51:07;100150.71;;;17.87;74.83
68077;BME280;54866;53.458;14.540;2023-07-20T05:53:36;100149.20;;;18.41;73.23
68077;BME280;54866;53.458;14.540;2023-07-20T05:56:06;100146.05;;;20.54;67.31
68077;BME280;54866;53.458;14.540;2023-07-20T05:58:38;100139.94;;;22.99;59.79
68077;BME280;54866;53.458;14.540;2023-07-20T06:01:07;100137.46;;;24.80;54.18
68077;BME280;54866;53.458;14.540;2023-07-20T06:03:36;100137.70;;;25.57;49.61
68077;BME280;54866;53.458;14.540;2023-07-20T06:06:06;100133.42;;;26.53;43.82
68077;BME280;54866;53.458;14.540;2023-07-20T06:08:37;100133.20;;;27.06;43.71
68077;BME280;54866;53.458;14.540;2023-07-20T06:11:06;100142.27;;;27.62;41.61
68077;BME280;54866;53.458;14.540;2023-07-20T06:13:35;100137.52;;;28.44;40.11
68077;BME280;54866;53.458;14.540;2023-07-20T06:16:05;100140.77;;;29.44;38.89
68077;BME280;54866;53.458;14.540;2023-07-20T06:18:35;100137.24;;;30.21;36.83
68077;BME280;54866;53.458;14.540;2023-07-20T06:21:04;100139.65;;;30.76;34.97
68077;BME280;54866;53.458;14.540;2023-07-20T06:23:33;100134.05;;;30.20;34.23
68077;BME280;54866;53.458;14.540;2023-07-20T06:26:03;100142.70;;;29.31;35.57
68077;BME280;54866;53.458;14.540;2023-07-20T06:28:32;100143.52;;;28.98;36.05
68077;BME280;54866;53.458;14.540;2023-07-20T06:31:02;100139.09;;;29.24;36.06
68077;BME280;54866;53.458;14.540;2023-07-20T06:33:32;100141.11;;;30.05;34.40
68077;BME280;54866;53.458;14.540;2023-07-20T06:36:02;100137.67;;;30.71;33.56
68077;BME280;54866;53.458;14.540;2023-07-20T06:38:32;100139.12;;;30.56;33.35
68077;BME280;54866;53.458;14.540;2023-07-20T06:41:01;100136.07;;;30.48;33.28
68077;BME280;54866;53.458;14.540;2023-07-20T06:43:30;100137.63;;;29.85;33.85
68077;BME280;54866;53.458;14.540;2023-07-20T06:46:00;100139.63;;;28.72;35.62
68077;BME280;54866;53.458;14.540;2023-07-20T06:48:29;100150.33;;;27.31;38.05
68077;BME280;54866;53.458;14.540;2023-07-20T06:50:58;100156.04;;;26.23;40.59
68077;BME280;54866;53.458;14.540;2023-07-20T06:53:28;100153.16;;;25.11;42.90
68077;BME280;54866;53.458;14.540;2023-07-20T06:55:57;100154.70;;;24.44;44.70
68077;BME280;54866;53.458;14.540;2023-07-20T06:58:26;100153.05;;;24.03;46.21
68077;BME280;54866;53.458;14.540;2023-07-20T07:00:58;100155.60;;;23.79;47.22
68077;BME280;54866;53.458;14.540;2023-07-20T07:03:27;100152.63;;;23.54;48.07
68077;BME280;54866;53.458;14.540;2023-07-20T07:05:57;100149.52;;;23.34;47.68
68077;BME280;54866;53.458;14.540;2023-07-20T07:08:27;100150.02;;;22.86;48.77
68077;BME280;54866;53.458;14.540;2023-07-20T07:10:56;100154.95;;;22.45;49.95
68077;BME280;54866;53.458;14.540;2023-07-20T07:13:26;100158.22;;;22.16;51.01
68077;BME280;54866;53.458;14.540;2023-07-20T07:15:56;100159.89;;;21.83;51.80
68077;BME280;54866;53.458;14.540;2023-07-20T07:18:25;100162.58;;;21.49;52.72
68077;BME280;54866;53.458;14.540;2023-07-20T07:20:55;100167.43;;;21.10;53.91
68077;BME280;54866;53.458;14.540;2023-07-20T07:23:24;100170.15;;;20.73;55.49
68077;BME280;54866;53.458;14.540;2023-07-20T07:25:53;100173.21;;;20.37;57.32
68077;BME280;54866;53.458;14.540;2023-07-20T07:28:23;100172.90;;;20.03;59.71
68077;BME280;54866;53.458;14.540;2023-07-20T07:30:52;100172.86;;;19.72;61.65
68077;BME280;54866;53.458;14.540;2023-07-20T07:33:21;100177.62;;;19.46;62.49
68077;BME280;54866;53.458;14.540;2023-07-20T07:35:51;100176.36;;;19.28;64.31
68077;BME280;54866;53.458;14.540;2023-07-20T07:38:21;100177.93;;;19.03;65.34
68077;BME280;54866;53.458;14.540;2023-07-20T07:40:50;100175.75;;;18.93;65.92
68077;BME280;54866;53.458;14.540;2023-07-20T07:43:19;100171.91;;;18.81;65.65
68077;BME280;54866;53.458;14.540;2023-07-20T07:45:49;100178.27;;;18.70;65.67
68077;BME280;54866;53.458;14.540;2023-07-20T07:48:18;100181.92;;;18.61;66.03
68077;BME280;54866;53.458;14.540;2023-07-20T07:50:48;100180.67;;;18.56;66.05
68077;BME280;54866;53.458;14.540;2023-07-20T07:53:19;100183.02;;;18.47;66.15
68077;BME280;54866;53.458;14.540;2023-07-20T07:55:50;100181.60;;;18.35;66.92
68077;BME280;54866;53.458;14.540;2023-07-20T07:58:20;100184.14;;;18.31;67.05
68077;BME280;54866;53.458;14.540;2023-07-20T08:00:49;100186.11;;;18.37;67.39
68077;BME280;54866;53.458;14.540;2023-07-20T08:03:18;100193.45;;;18.45;67.81
68077;BME280;54866;53.458;14.540;2023-07-20T08:05:48;100192.46;;;18.54;67.53
68077;BME280;54866;53.458;14.540;2023-07-20T08:08:18;100187.94;;;18.69;66.90
68077;BME280;54866;53.458;14.540;2023-07-20T08:10:48;100185.45;;;18.92;66.03
68077;BME280;54866;53.458;14.540;2023-07-20T08:13:17;100185.35;;;19.27;65.04
68077;BME280;54866;53.458;14.540;2023-07-20T08:15:48;100182.26;;;19.71;64.29
68077;BME280;54866;53.458;14.540;2023-07-20T08:18:18;100174.73;;;20.21;63.27
68077;BME280;54866;53.458;14.540;2023-07-20T08:20:47;100174.31;;;20.81;61.62
68077;BME280;54866;53.458;14.540;2023-07-20T08:23:17;100176.35;;;21.38;58.35
68077;BME280;54866;53.458;14.540;2023-07-20T08:25:46;100174.97;;;21.59;54.25
68077;BME280;54866;53.458;14.540;2023-07-20T08:28:16;100186.07;;;21.70;54.59
68077;BME280;54866;53.458;14.540;2023-07-20T08:30:47;100181.97;;;21.68;53.60
68077;BME280;54866;53.458;14.540;2023-07-20T08:33:18;100187.30;;;21.59;54.37
68077;BME280;54866;53.458;14.540;2023-07-20T08:35:48;100189.89;;;21.57;54.37
68077;BME280;54866;53.458;14.540;2023-07-20T08:38:17;100190.27;;;21.69;54.86
68077;BME280;54866;53.458;14.540;2023-07-20T08:40:47;100186.63;;;21.96;53.03
68077;BME280;54866;53.458;14.540;2023-07-20T08:43:16;100188.90;;;22.05;52.70
68077;BME280;54866;53.458;14.540;2023-07-20T08:45:46;100190.89;;;21.95;52.31
68077;BME280;54866;53.458;14.540;2023-07-20T08:48:19;100187.02;;;21.88;51.39
68077;BME280;54866;53.458;14.540;2023-07-20T08:50:51;100186.89;;;22.17;51.39
68077;BME280;54866;53.458;14.540;2023-07-20T08:53:21;100183.83;;;22.43;49.06
68077;BME280;54866;53.458;14.540;2023-07-20T08:55:51;100184.25;;;22.67;49.03
68077;BME280;54866;53.458;14.540;2023-07-20T08:58:22;100172.90;;;22.82;48.76
68077;BME280;54866;53.458;14.540;2023-07-20T09:00:54;100173.17;;;23.14;48.24
68077;BME280;54866;53.458;14.540;2023-07-20T09:03:24;100176.65;;;23.47;47.10
68077;BME280;54866;53.458;14.540;2023-07-20T09:05:53;100178.80;;;23.66;45.93
68077;BME280;54866;53.458;14.540;2023-07-20T09:08:23;100179.08;;;23.80;45.26
68077;BME280;54866;53.458;14.540;2023-07-20T09:10:52;100176.58;;;23.40;44.40
68077;BME280;54866;53.458;14.540;2023-07-20T09:13:21;100186.33;;;23.01;45.75
68077;BME280;54866;53.458;14.540;2023-07-20T09:15:54;100189.31;;;22.78;46.97
68077;BME280;54866;53.458;14.540;2023-07-20T09:18:28;100181.74;;;22.56;46.26
68077;BME280;54866;53.458;14.540;2023-07-20T09:21:03;100186.48;;;22.35;45.12
68077;BME280;54866;53.458;14.540;2023-07-20T09:23:34;100188.41;;;22.28;45.62
68077;BME280;54866;53.458;14.540;2023-07-20T09:26:11;100186.35;;;22.05;46.75
68077;BME280;54866;53.458;14.540;2023-07-20T09:28:44;100185.52;;;21.94;47.50
68077;BME280;54866;53.458;14.540;2023-07-20T09:31:21;100181.06;;;21.71;47.41
68077;BME280;54866;53.458;14.540;2023-07-20T09:33:53;100190.13;;;21.53;47.87
68077;BME280;54866;53.458;14.540;2023-07-20T09:36:22;100186.77;;;21.35;48.50
68077;BME280;54866;53.458;14.540;2023-07-20T09:38:52;100185.44;;;21.23;49.27
68077;BME280;54866;53.458;14.540;2023-07-20T09:41:22;100194.02;;;21.27;49.23
68077;BME280;54866;53.458;14.540;2023-07-20T09:43:52;100193.14;;;21.36;48.51
68077;BME280;54866;53.458;14.540;2023-07-20T09:46:22;100199.89;;;21.51;48.15
68077;BME280;54866;53.458;14.540;2023-07-20T09:48:54;100196.98;;;21.67;48.04
68077;BME280;54866;53.458;14.540;2023-07-20T09:51:24;100206.15;;;21.79;48.27
68077;BME280;54866;53.458;14.540;2023-07-20T09:53:54;100212.73;;;21.80;49.31
68077;BME280;54866;53.458;14.540;2023-07-20T09:56:25;100217.83;;;21.62;52.36
68077;BME280;54866;53.458;14.540;2023-07-20T09:58:55;100224.85;;;21.18;55.71
68077;BME280;54866;53.458;14.540;2023-07-20T10:01:25;100230.09;;;20.51;59.37
68077;BME280;54866;53.458;14.540;2023-07-20T10:03:59;100242.29;;;19.77;62.46
68077;BME280;54866;53.458;14.540;2023-07-20T10:06:34;100245.64;;;19.10;65.44
68077;BME280;54866;53.458;14.540;2023-07-20T10:09:04;100245.94;;;18.60;67.56
68077;BME280;54866;53.458;14.540;2023-07-20T10:11:36;100244.45;;;18.25;69.20
68077;BME280;54866;53.458;14.540;2023-07-20T10:14:09;100241.06;;;18.14;70.73
68077;BME280;54866;53.458;14.540;2023-07-20T10:16:49;100237.92;;;18.36;71.54
68077;BME280;54866;53.458;14.540;2023-07-20T10:19:25;100231.63;;;18.81;71.95
68077;BME280;54866;53.458;14.540;2023-07-20T10:22:00;100229.04;;;19.47;72.75
68077;BME280;54866;53.458;14.540;2023-07-20T10:24:33;100223.05;;;20.10;70.46
68077;BME280;54866;53.458;14.540;2023-07-20T10:27:04;100220.25;;;20.72;67.29
68077;BME280;54866;53.458;14.540;2023-07-20T10:29:34;100219.13;;;21.33;65.94
68077;BME280;54866;53.458;14.540;2023-07-20T10:32:05;100218.73;;;21.80;64.65
68077;BME280;54866;53.458;14.540;2023-07-20T10:34:34;100219.22;;;21.98;62.25
68077;BME280;54866;53.458;14.540;2023-07-20T10:37:04;100216.90;;;22.13;61.96
68077;BME280;54866;53.458;14.540;2023-07-20T10:39:34;100217.02;;;22.49;61.21
68077;BME280;54866;53.458;14.540;2023-07-20T10:42:06;100210.46;;;22.72;58.89
68077;BME280;54866;53.458;14.540;2023-07-20T10:44:38;100211.17;;;22.95;57.82
68077;BME280;54866;53.458;14.540;2023-07-20T10:47:12;100205.94;;;23.23;57.24
68077;BME280;54866;53.458;14.540;2023-07-20T10:50:01;100199.73;;;23.27;56.43
68077;BME280;54866;53.458;14.540;2023-07-20T10:52:39;100195.72;;;23.25;52.90
68077;BME280;54866;53.458;14.540;2023-07-20T10:55:17;100190.06;;;23.27;52.56
68077;BME280;54866;53.458;14.540;2023-07-20T10:58:10;100191.93;;;23.54;53.73
68077;BME280;54866;53.458;14.540;2023-07-20T11:00:56;100191.96;;;23.90;53.70
68077;BME280;54866;53.458;14.540;2023-07-20T11:03:31;100188.09;;;24.01;50.27
68077;BME280;54866;53.458;14.540;2023-07-20T11:06:31;100184.02;;;24.12;49.64
68077;BME280;54866;53.458;14.540;2023-07-20T11:09:11;100186.05;;;24.28;46.90
68077;BME280;54866;53.458;14.540;2023-07-20T11:11:44;100178.81;;;24.45;47.25
68077;BME280;54866;53.458;14.540;2023-07-20T11:14:22;100174.19;;;24.49;44.08
68077;BME280;54866;53.458;14.540;2023-07-20T11:16:53;100179.60;;;24.19;42.22
68077;BME280;54866;53.458;14.540;2023-07-20T11:19:24;100176.04;;;24.18;43.98
68077;BME280;54866;53.458;14.540;2023-07-20T11:21:54;100176.73;;;24.25;41.80
68077;BME280;54866;53.458;14.540;2023-07-20T11:24:25;100171.30;;;24.04;41.20
68077;BME280;54866;53.458;14.540;2023-07-20T11:26:56;100175.09;;;24.17;40.85
68077;BME280;54866;53.458;14.540;2023-07-20T11:29:25;100174.90;;;24.06;39.65
68077;BME280;54866;53.458;14.540;2023-07-20T11:31:55;100174.91;;;24.19;40.08
68077;BME280;54866;53.458;14.540;2023-07-20T11:34:25;100168.35;;;24.31;40.64
68077;BME280;54866;53.458;14.540;2023-07-20T11:36:55;100167.92;;;24.14;39.98
68077;BME280;54866;53.458;14.540;2023-07-20T11:39:25;100174.58;;;24.13;39.62
68077;BME280;54866;53.458;14.540;2023-07-20T11:41:56;100167.21;;;24.25;38.92
68077;BME280;54866;53.458;14.540;2023-07-20T11:44:27;100172.30;;;24.35;38.90
68077;BME280;54866;53.458;14.540;2023-07-20T11:47:05;100165.11;;;24.44;38.49
68077;BME280;54866;53.458;14.540;2023-07-20T11:49:37;100167.63;;;24.46;37.71
68077;BME280;54866;53.458;14.540;2023-07-20T11:52:08;100165.48;;;24.25;37.18
68077;BME280;54866;53.458;14.540;2023-07-20T11:54:39;100166.89;;;24.01;37.14
68077;BME280;54866;53.458;14.540;2023-07-20T11:57:17;100169.06;;;23.76;37.74
68077;BME280;54866;53.458;14.540;2023-07-20T11:59:55;100174.25;;;23.66;38.93
68077;BME280;54866;53.458;14.540;2023-07-20T12:02:28;100169.88;;;23.56;37.40
68077;BME280;54866;53.458;14.540;2023-07-20T12:04:58;100168.16;;;23.51;36.53
68077;BME280;54866;53.458;14.540;2023-07-20T12:07:29;100175.02;;;23.68;36.85
68077;BME280;54866;53.458;14.540;2023-07-20T12:10:10;100175.27;;;23.73;35.92
68077;BME280;54866;53.458;14.540;2023-07-20T12:12:41;100175.95;;;23.97;35.50
68077;BME280;54866;53.458;14.540;2023-07-20T12:15:19;100173.70;;;24.24;35.18
68077;BME280;54866;53.458;14.540;2023-07-20T12:17:51;100172.64;;;24.35;35.28
68077;BME280;54866;53.458;14.540;2023-07-20T12:20:28;100176.94;;;24.40;36.10
68077;BME280;54866;53.458;14.540;2023-07-20T12:23:00;100172.53;;;24.45;37.88
68077;BME280;54866;53.458;14.540;2023-07-20T12:25:38;100175.39;;;24.45;37.85
68077;BME280;54866;53.458;14.540;2023-07-20T12:28:09;100179.98;;;24.37;37.45
68077;BME280;54866;53.458;14.540;2023-07-20T12:30:39;100180.63;;;24.27;38.48
68077;BME280;54866;53.458;14.540;2023-07-20T12:33:09;100179.92;;;24.07;38.40
68077;BME280;54866;53.458;14.540;2023-07-20T12:35:38;100180.64;;;23.82;38.10
68077;BME280;54866;53.458;14.540;2023-07-20T12:38:07;100179.27;;;23.55;37.23
68077;BME280;54866;53.458;14.540;2023-07-20T12:40:37;100180.56;;;23.37;37.72
68077;BME280;54866;53.458;14.540;2023-07-20T12:43:06;100182.58;;;23.33;38.13
68077;BME280;54866;53.458;14.540;2023-07-20T12:45:35;100178.09;;;23.49;38.45
68077;BME280;54866;53.458;14.540;2023-07-20T12:48:05;100172.98;;;23.85;38.14
68077;BME280;54866;53.458;14.540;2023-07-20T12:50:35;100170.00;;;24.05;37.04
68077;BME280;54866;53.458;14.540;2023-07-20T12:53:04;100164.39;;;24.16;35.40
68077;BME280;54866;53.458;14.540;2023-07-20T12:55:33;100157.05;;;24.09;35.17
68077;BME280;54866;53.458;14.540;2023-07-20T12:58:03;100157.37;;;24.01;35.20
68077;BME280;54866;53.458;14.540;2023-07-20T13:00:32;100158.50;;;24.10;36.19
68077;BME280;54866;53.458;14.540;2023-07-20T13:03:02;100149.58;;;24.27;34.66
68077;BME280;54866;53.458;14.540;2023-07-20T13:05:33;100156.85;;;24.35;35.14
68077;BME280;54866;53.458;14.540;2023-07-20T13:08:02;100151.55;;;24.22;34.63